sensor_id;sensor_type;location;lat;lon;timestamp;pressure;altitude;pressure_sealevel;temperature;humidity
21779;BME280;11050;52.222;20.916;2022-10-22T00:00:13;99890.06;;;10.60;100.00
21779;BME280;11050;52.222;20.916;2022-10-22T00:02:39;99886.50;;;10.60;100.00
21779;BME280;11050;52.222;20.916;2022-10-22T00:05:05;99897.22;;;10.61;100.00
21779;BME280;11050;52.222;20.916;2022-10-22T00:07:32;99902.19;;;10.64;100.00
21779;BME280;11050;52.222;20.916;2022-10-22T00:09:57;99892.59;;;10.67;100.00
21779;BME280;11050;52.222;20.916;2022-10-22T00:12:24;99895.06;;;10.68;100.00
21779;BME280;11050;52.222;20.916;2022-10-22T00:14:50;99889.03;;;10.71;100.00
21779;BME280;11050;52.222;20.916;2022-10-22T00:17:16;99877.47;;;10.69;100.00
21779;BME280;11050;52.222;20.916;2022-10-22T00:19:42;99879.69;;;10.72;100.00
21779;BME280;11050;52.222;20.916;2022-10-22T00:22:08;99876.94;;;10.72;100.00
21779;BME280;11050;52.222;20.916;2022-10-22T00:24:36;99876.38;;;10.70;100.00
21779;BME280;11050;52.222;20.916;2022-10-22T00:27:04;99887.41;;;10.75;100.00
21779;BME280;11050;52.222;20.916;2022-10-22T00:29:30;99875.59;;;10.75;100.00
21779;BME280;11050;52.222;20.916;2022-10-22T00:31:56;99882.19;;;10.79;100.00
21779;BME280;11050;52.222;20.916;2022-10-22T00:34:22;99871.75;;;10.76;100.00
21779;BME280;11050;52.222;20.916;2022-10-22T00:36:50;99856.13;;;10.81;100.00
21779;BME280;11050;52.222;20.916;2022-10-22T00:39:19;99862.75;;;10.85;100.00
21779;BME280;11050;52.222;20.916;2022-10-22T00:41:48;99848.44;;;10.83;100.00
21779;BME280;11050;52.222;20.916;2022-10-22T00:47:32;99847.88;;;10.81;100.00
21779;BME280;11050;52.222;20.916;2022-10-22T00:49:59;99853.09;;;10.83;100.00
21779;BME280;11050;52.222;20.916;2022-10-22T00:52:27;99845.13;;;10.81;100.00
21779;BME280;11050;52.222;20.916;2022-10-22T00:54:53;99835.19;;;10.75;100.00
21779;BME280;11050;52.222;20.916;2022-10-22T00:57:20;99849.00;;;10.85;100.00
21779;BME280;11050;52.222;20.916;2022-10-22T00:59:47;99842.72;;;10.90;100.00
21779;BME280;11050;52.222;20.916;2022-10-22T01:02:14;99839.69;;;10.91;100.00
21779;BME280;11050;52.222;20.916;2022-10-22T01:04:40;99844.06;;;10.92;100.00
21779;BME280;11050;52.222;20.916;2022-10-22T01:07:06;99827.00;;;10.85;100.00
21779;BME280;11050;52.222;20.916;2022-10-22T01:10:02;99831.72;;;10.95;100.00
21779;BME280;11050;52.222;20.916;2022-10-22T01:13:15;99829.81;;;10.95;100.00
21779;BME280;11050;52.222;20.916;2022-10-22T01:16:03;99835.56;;;10.94;100.00
21779;BME280;11050;52.222;20.916;2022-10-22T01:19:01;99829.25;;;10.93;100.00
21779;BME280;11050;52.222;20.916;2022-10-22T01:21:41;99823.75;;;10.93;100.00
21779;BME280;11050;52.222;20.916;2022-10-22T01:25:04;99828.69;;;10.91;100.00
21779;BME280;11050;52.222;20.916;2022-10-22T01:30:21;99820.75;;;11.00;100.00
21779;BME280;11050;52.222;20.916;2022-10-22T01:32:56;99813.88;;;11.02;100.00
21779;BME280;11050;52.222;20.916;2022-10-22T01:35:28;99816.09;;;11.05;100.00
21779;BME280;11050;52.222;20.916;2022-10-22T01:38:00;99810.59;;;11.05;100.00
21779;BME280;11050;52.222;20.916;2022-10-22T01:40:29;99813.63;;;11.09;100.00
21779;BME280;11050;52.222;20.916;2022-10-22T01:42:56;99826.28;;;11.10;100.00
21779;BME280;11050;52.222;20.916;2022-10-22T01:45:22;99813.88;;;11.02;100.00
21779;BME280;11050;52.222;20.916;2022-10-22T01:54:35;99822.66;;;10.94;100.00
21779;BME280;11050;52.222;20.916;2022-10-22T02:03:09;99811.91;;;10.93;100.00
21779;BME280;11050;52.222;20.916;2022-10-22T02:06:02;99811.09;;;10.92;100.00
21779;BME280;11050;52.222;20.916;2022-10-22T02:08:32;99805.63;;;10.97;100.00
21779;BME280;11050;52.222;20.916;2022-10-22T02:11:01;99797.38;;;10.97;100.00
21779;BME280;11050;52.222;20.916;2022-10-22T02:13:38;99798.75;;;11.00;100.00
21779;BME280;11050;52.222;20.916;2022-10-22T02:16:09;99803.72;;;11.03;100.00
21779;BME280;11050;52.222;20.916;2022-10-22T02:18:39;99793.53;;;11.03;100.00
21779;BME280;11050;52.222;20.916;2022-10-22T02:21:07;99803.19;;;11.06;100.00
21779;BME280;11050;52.222;20.916;2022-10-22T02:23:34;99801.00;;;11.08;100.00
21779;BME280;11050;52.222;20.916;2022-10-22T02:26:16;99799.34;;;11.12;100.00
21779;BME280;11050;52.222;20.916;2022-10-22T02:29:07;99798.25;;;11.13;100.00
21779;BME280;11050;52.222;20.916;2022-10-22T02:31:39;99802.94;;;11.12;100.00
21779;BME280;11050;52.222;20.916;2022-10-22T02:34:11;99801.00;;;11.13;100.00
21779;BME280;11050;52.222;20.916;2022-10-22T02:36:42;99794.94;;;11.11;100.00
21779;BME280;11050;52.222;20.916;2022-10-22T02:39:09;99804.59;;;11.13;100.00
21779;BME280;11050;52.222;20.916;2022-10-22T02:41:36;99803.75;;;11.13;100.00
21779;BME280;11050;52.222;20.916;2022-10-22T02:44:09;99801.81;;;11.08;100.00
21779;BME280;11050;52.222;20.916;2022-10-22T02:46:38;99805.66;;;11.07;100.00
21779;BME280;11050;52.222;20.916;2022-10-22T02:49:04;99803.72;;;11.03;100.00
21779;BME280;11050;52.222;20.916;2022-10-22T02:51:30;99798.78;;;11.05;100.00
21779;BME280;11050;52.222;20.916;2022-10-22T02:53:56;99796.28;;;11.03;100.00
21779;BME280;11050;52.222;20.916;2022-10-22T02:56:21;99805.63;;;11.02;100.00
21779;BME280;11050;52.222;20.916;2022-10-22T02:58:47;99805.91;;;11.01;100.00
21779;BME280;11050;52.222;20.916;2022-10-22T03:01:13;99808.09;;;10.99;100.00
21779;BME280;11050;52.222;20.916;2022-10-22T03:03:39;99807.84;;;11.00;100.00
21779;BME280;11050;52.222;20.916;2022-10-22T03:06:05;99806.97;;;10.95;100.00
21779;BME280;11050;52.222;20.916;2022-10-22T03:08:30;99803.69;;;10.98;100.00
21779;BME280;11050;52.222;20.916;2022-10-22T03:10:56;99804.53;;;10.98;100.00
21779;BME280;11050;52.222;20.916;2022-10-22T03:13:22;99794.09;;;11.00;100.00
21779;BME280;11050;52.222;20.916;2022-10-22T03:15:49;99796.56;;;11.02;100.00
21779;BME280;11050;52.222;20.916;2022-10-22T03:18:16;99792.72;;;11.03;100.00
21779;BME280;11050;52.222;20.916;2022-10-22T03:20:42;99789.66;;;10.99;100.00
21779;BME280;11050;52.222;20.916;2022-10-22T03:23:09;99783.06;;;10.95;100.00
21779;BME280;11050;52.222;20.916;2022-10-22T03:25:35;99794.63;;;10.97;100.00
21779;BME280;11050;52.222;20.916;2022-10-22T03:28:07;99782.81;;;11.02;100.00
21779;BME280;11050;52.222;20.916;2022-10-22T03:30:35;99770.97;;;11.01;100.00
21779;BME280;11050;52.222;20.916;2022-10-22T03:33:01;99791.88;;;10.97;100.00
21779;BME280;11050;52.222;20.916;2022-10-22T03:35:27;99784.72;;;11.01;100.00
21779;BME280;11050;52.222;20.916;2022-10-22T03:37:53;99796.56;;;11.02;100.00
21779;BME280;11050;52.222;20.916;2022-10-22T03:40:20;99800.94;;;10.98;100.00
21779;BME280;11050;52.222;20.916;2022-10-22T03:42:46;99814.41;;;10.99;100.00
21779;BME280;11050;52.222;20.916;2022-10-22T03:45:11;99815.25;;;11.00;100.00
21779;BME280;11050;52.222;20.916;2022-10-22T03:47:37;99816.34;;;10.99;100.00
21779;BME280;11050;52.222;20.916;2022-10-22T03:50:05;99819.91;;;10.99;100.00
21779;BME280;11050;52.222;20.916;2022-10-22T03:52:36;99812.22;;;11.01;100.00
21779;BME280;11050;52.222;20.916;2022-10-22T03:55:04;99799.84;;;10.99;100.00
21779;BME280;11050;52.222;20.916;2022-10-22T03:57:30;99788.31;;;11.02;100.00
21779;BME280;11050;52.222;20.916;2022-10-22T03:59:56;99780.88;;;10.97;100.00
21779;BME280;11050;52.222;20.916;2022-10-22T04:02:22;99793.81;;;11.07;100.00
21779;BME280;11050;52.222;20.916;2022-10-22T04:04:47;99796.31;;;11.08;100.00
21779;BME280;11050;52.222;20.916;2022-10-22T04:07:13;99802.38;;;11.10;100.00
21779;BME280;11050;52.222;20.916;2022-10-22T04:09:39;99803.47;;;11.09;100.00
21779;BME280;11050;52.222;20.916;2022-10-22T04:12:05;99804.56;;;11.08;100.00
21779;BME280;11050;52.222;20.916;2022-10-22T04:14:33;99793.00;;;11.06;100.00
21779;BME280;11050;52.222;20.916;2022-10-22T04:16:58;99791.94;;;11.12;100.00
21779;BME280;11050;52.222;20.916;2022-10-22T04:19:24;99794.13;;;11.10;100.00
21779;BME280;11050;52.222;20.916;2022-10-22T04:21:50;99791.91;;;11.07;100.00
21779;BME280;11050;52.222;20.916;2022-10-22T04:24:15;99780.94;;;11.12;100.00
21779;BME280;11050;52.222;20.916;2022-10-22T04:26:41;99764.44;;;11.12;100.00
21779;BME280;11050;52.222;20.916;2022-10-22T04:29:08;99758.09;;;11.12;100.00
21779;BME280;11050;52.222;20.916;2022-10-22T04:31:34;99758.91;;;11.07;100.00
21779;BME280;11050;52.222;20.916;2022-10-22T04:34:00;99766.63;;;11.15;100.00
21779;BME280;11050;52.222;20.916;2022-10-22T04:36:27;99754.28;;;11.18;100.00
21779;BME280;11050;52.222;20.916;2022-10-22T04:38:59;99750.41;;;11.19;100.00
21779;BME280;11050;52.222;20.916;2022-10-22T04:41:30;99744.09;;;11.18;100.00
21779;BME280;11050;52.222;20.916;2022-10-22T04:43:57;99741.34;;;11.13;100.00
21779;BME280;11050;52.222;20.916;2022-10-22T04:46:25;99744.34;;;11.17;100.00
21779;BME280;11050;52.222;20.916;2022-10-22T04:48:51;99744.09;;;11.18;100.00
21779;BME280;11050;52.222;20.916;2022-10-22T04:51:20;99753.72;;;11.16;100.00
21779;BME280;11050;52.222;20.916;2022-10-22T04:53:48;99750.13;;;11.10;100.00
21779;BME280;11050;52.222;20.916;2022-10-22T04:56:17;99759.47;;;11.14;100.00
21779;BME280;11050;52.222;20.916;2022-10-22T04:58:49;99759.47;;;11.14;100.00
21779;BME280;11050;52.222;20.916;2022-10-22T05:01:27;99759.78;;;11.18;100.00
21779;BME280;11050;52.222;20.916;2022-10-22T05:03:56;99763.63;;;11.22;100.00
21779;BME280;11050;52.222;20.916;2022-10-22T05:06:24;99752.38;;;11.23;100.00
21779;BME280;11050;52.222;20.916;2022-10-22T05:09:16;99762.25;;;11.24;100.00
21779;BME280;11050;52.222;20.916;2022-10-22T05:11:45;99757.88;;;11.23;100.00
21779;BME280;11050;52.222;20.916;2022-10-22T05:14:15;99762.53;;;11.28;100.00
21779;BME280;11050;52.222;20.916;2022-10-22T05:16:42;99768.88;;;11.28;100.00
21779;BME280;11050;52.222;20.916;2022-10-22T05:19:15;99766.13;;;11.28;100.00
21779;BME280;11050;52.222;20.916;2022-10-22T05:21:42;99762.53;;;11.28;100.00
21779;BME280;11050;52.222;20.916;2022-10-22T05:24:08;99774.66;;;11.32;100.00
21779;BME280;11050;52.222;20.916;2022-10-22T05:26:33;99775.22;;;11.34;100.00
21779;BME280;11050;52.222;20.916;2022-10-22T05:28:59;99772.19;;;11.30;100.00
21779;BME280;11050;52.222;20.916;2022-10-22T05:31:25;99773.81;;;11.31;100.00
21779;BME280;11050;52.222;20.916;2022-10-22T05:33:54;99772.75;;;11.37;100.00
21779;BME280;11050;52.222;20.916;2022-10-22T05:36:21;99768.91;;;11.38;100.00
21779;BME280;11050;52.222;20.916;2022-10-22T05:38:48;99773.28;;;11.39;100.00
21779;BME280;11050;52.222;20.916;2022-10-22T05:41:20;99766.44;;;11.42;100.00
21779;BME280;11050;52.222;20.916;2022-10-22T05:43:47;99749.91;;;11.42;100.00
21779;BME280;11050;52.222;20.916;2022-10-22T05:46:21;99760.41;;;11.50;100.00
21779;BME280;11050;52.222;20.916;2022-10-22T05:48:56;99764.78;;;11.56;100.00
21779;BME280;11050;52.222;20.916;2022-10-22T05:51:25;99770.31;;;11.61;100.00
21779;BME280;11050;52.222;20.916;2022-10-22T05:53:54;99775.53;;;11.63;100.00
21779;BME280;11050;52.222;20.916;2022-10-22T05:56:21;99757.69;;;11.65;100.00
21779;BME280;11050;52.222;20.916;2022-10-22T05:58:48;99750.81;;;11.78;100.00
21779;BME280;11050;52.222;20.916;2022-10-22T06:01:26;99753.03;;;11.86;100.00
21779;BME280;11050;52.222;20.916;2022-10-22T06:03:55;99753.00;;;11.91;100.00
21779;BME280;11050;52.222;20.916;2022-10-22T06:06:42;99763.22;;;11.95;100.00
21779;BME280;11050;52.222;20.916;2022-10-22T06:09:21;99776.41;;;12.08;100.00
21779;BME280;11050;52.222;20.916;2022-10-22T06:11:48;99768.41;;;12.07;100.00
21779;BME280;11050;52.222;20.916;2022-10-22T06:14:16;99778.88;;;12.15;100.00
21779;BME280;11050;52.222;20.916;2022-10-22T06:16:42;99786.06;;;12.16;100.00
21779;BME280;11050;52.222;20.916;2022-10-22T06:19:13;99780.25;;;12.17;100.00
21779;BME280;11050;52.222;20.916;2022-10-22T06:21:40;99792.66;;;12.25;100.00
21779;BME280;11050;52.222;20.916;2022-10-22T06:24:06;99782.47;;;12.25;100.00
21779;BME280;11050;52.222;20.916;2022-10-22T06:26:32;99788.22;;;12.24;100.00
21779;BME280;11050;52.222;20.916;2022-10-22T06:28:59;99804.22;;;12.27;100.00
21779;BME280;11050;52.222;20.916;2022-10-22T06:31:26;99790.44;;;12.22;100.00
21779;BME280;11050;52.222;20.916;2022-10-22T06:33:52;99782.19;;;12.27;100.00
21779;BME280;11050;52.222;20.916;2022-10-22T06:36:21;99806.69;;;12.28;100.00
21779;BME280;11050;52.222;20.916;2022-10-22T06:38:51;99807.53;;;12.29;100.00
21779;BME280;11050;52.222;20.916;2022-10-22T06:41:17;99798.72;;;12.27;100.00
21779;BME280;11050;52.222;20.916;2022-10-22T06:43:45;99794.28;;;12.26;100.00
21779;BME280;11050;52.222;20.916;2022-10-22T06:46:17;99798.16;;;12.30;100.00
21779;BME280;11050;52.222;20.916;2022-10-22T06:48:52;99793.16;;;12.37;100.00
21779;BME280;11050;52.222;20.916;2022-10-22T06:51:19;99803.59;;;12.50;100.00
21779;BME280;11050;52.222;20.916;2022-10-22T06:53:49;99797.56;;;12.53;100.00
21779;BME280;11050;52.222;20.916;2022-10-22T06:56:19;99800.28;;;12.58;100.00
21779;BME280;11050;52.222;20.916;2022-10-22T06:58:50;99805.53;;;12.65;100.00
21779;BME280;11050;52.222;20.916;2022-10-22T07:01:19;99800.56;;;12.62;100.00
21779;BME280;11050;52.222;20.916;2022-10-22T07:03:46;99798.66;;;12.57;100.00
21779;BME280;11050;52.222;20.916;2022-10-22T07:06:13;99820.44;;;12.59;100.00
21779;BME280;11050;52.222;20.916;2022-10-22T07:08:40;99832.28;;;12.54;100.00
21779;BME280;11050;52.222;20.916;2022-10-22T07:11:15;99851.59;;;12.49;100.00
21779;BME280;11050;52.222;20.916;2022-10-22T07:13:42;99845.25;;;12.44;100.00
21779;BME280;11050;52.222;20.916;2022-10-22T07:16:09;99843.88;;;12.41;100.00
21779;BME280;11050;52.222;20.916;2022-10-22T07:18:36;99842.78;;;12.42;100.00
21779;BME280;11050;52.222;20.916;2022-10-22T07:21:03;99850.22;;;12.42;100.00
21779;BME280;11050;52.222;20.916;2022-10-22T07:23:29;99842.22;;;12.40;100.00
21779;BME280;11050;52.222;20.916;2022-10-22T07:25:55;99843.88;;;12.41;100.00
21779;BME280;11050;52.222;20.916;2022-10-22T07:28:21;99842.78;;;12.42;100.00
21779;BME280;11050;52.222;20.916;2022-10-22T07:30:47;99830.38;;;12.34;100.00
21779;BME280;11050;52.222;20.916;2022-10-22T07:33:13;99834.25;;;12.38;100.00
21779;BME280;11050;52.222;20.916;2022-10-22T07:35:39;99838.63;;;12.39;100.00
21779;BME280;11050;52.222;20.916;2022-10-22T07:38:07;99827.34;;;12.41;100.00
21779;BME280;11050;52.222;20.916;2022-10-22T07:40:35;99824.84;;;12.39;100.00
21779;BME280;11050;52.222;20.916;2022-10-22T07:43:02;99818.50;;;12.49;100.00
21779;BME280;11050;52.222;20.916;2022-10-22T07:45:28;99819.03;;;12.56;100.00
21779;BME280;11050;52.222;20.916;2022-10-22T07:47:54;99829.78;;;12.63;100.00
21779;BME280;11050;52.222;20.916;2022-10-22T07:50:20;99822.88;;;12.65;100.00
21779;BME280;11050;52.222;20.916;2022-10-22T07:52:46;99826.47;;;12.71;100.00
21779;BME280;11050;52.222;20.916;2022-10-22T07:55:11;99819.00;;;12.76;100.00
21779;BME280;11050;52.222;20.916;2022-10-22T07:57:41;99821.19;;;12.79;100.00
21779;BME280;11050;52.222;20.916;2022-10-22T08:00:08;99838.28;;;12.81;100.00
21779;BME280;11050;52.222;20.916;2022-10-22T08:02:34;99836.91;;;12.79;100.00
21779;BME280;11050;52.222;20.916;2022-10-22T08:05:00;99843.28;;;12.74;100.00
21779;BME280;11050;52.222;20.916;2022-10-22T08:07:25;99838.03;;;12.78;100.00
21779;BME280;11050;52.222;20.916;2022-10-22T08:09:51;99830.56;;;12.83;100.00
21779;BME280;11050;52.222;20.916;2022-10-22T08:12:17;99829.72;;;12.93;100.00
21779;BME280;11050;52.222;20.916;2022-10-22T08:14:43;99837.41;;;13.11;100.00
21779;BME280;11050;52.222;20.916;2022-10-22T08:17:09;99854.78;;;13.11;100.00
21779;BME280;11050;52.222;20.916;2022-10-22T08:19:35;99843.72;;;13.16;100.00
21779;BME280;11050;52.222;20.916;2022-10-22T08:22:01;99847.03;;;13.13;100.00
21779;BME280;11050;52.222;20.916;2022-10-22T08:24:27;99843.47;;;13.08;100.00
21779;BME280;11050;52.222;20.916;2022-10-22T08:26:54;99849.00;;;13.08;100.00
21779;BME280;11050;52.222;20.916;2022-10-22T08:29:24;99857.00;;;13.09;100.00
21779;BME280;11050;52.222;20.916;2022-10-22T08:31:52;99863.06;;;13.11;100.00
21779;BME280;11050;52.222;20.916;2022-10-22T08:34:19;99853.44;;;13.04;100.00
21779;BME280;11050;52.222;20.916;2022-10-22T08:36:45;99846.78;;;13.05;100.00
21779;BME280;11050;52.222;20.916;2022-10-22T08:39:11;99847.09;;;13.08;100.00
21779;BME280;11050;52.222;20.916;2022-10-22T08:48:24;99843.03;;;13.45;100.00
21779;BME280;11050;52.222;20.916;2022-10-22T08:50:55;99848.50;;;13.55;100.00
21779;BME280;11050;52.222;20.916;2022-10-22T08:53:35;99843.47;;;13.67;100.00
21779;BME280;11050;52.222;20.916;2022-10-22T08:56:03;99848.41;;;13.70;100.00
21779;BME280;11050;52.222;20.916;2022-10-22T08:58:44;99854.25;;;13.68;100.00
21779;BME280;11050;52.222;20.916;2022-10-22T09:01:16;99857.78;;;13.74;100.00
21779;BME280;11050;52.222;20.916;2022-10-22T09:04:17;99855.03;;;13.74;100.00
21779;BME280;11050;52.222;20.916;2022-10-22T09:06:52;99865.25;;;13.73;100.00
21779;BME280;11050;52.222;20.916;2022-10-22T09:09:19;99871.63;;;13.69;100.00
21779;BME280;11050;52.222;20.916;2022-10-22T09:11:49;99874.66;;;13.67;100.00
21779;BME280;11050;52.222;20.916;2022-10-22T09:14:18;99883.03;;;13.57;100.00
21779;BME280;11050;52.222;20.916;2022-10-22T09:16:57;99877.25;;;13.49;100.00
21779;BME280;11050;52.222;20.916;2022-10-22T09:22:51;99869.47;;;13.56;100.00
21779;BME280;11050;52.222;20.916;2022-10-22T09:25:27;99883.22;;;13.66;100.00
21779;BME280;11050;52.222;20.916;2022-10-22T09:27:53;99872.69;;;13.73;100.00
21779;BME280;11050;52.222;20.916;2022-10-22T09:30:28;99872.69;;;13.73;100.00
21779;BME280;11050;52.222;20.916;2022-10-22T09:35:55;99854.00;;;13.65;100.00
21779;BME280;11050;52.222;20.916;2022-10-22T09:38:27;99854.53;;;13.62;100.00
21779;BME280;11050;52.222;20.916;2022-10-22T09:40:56;99847.88;;;13.68;100.00
21779;BME280;11050;52.222;20.916;2022-10-22T09:43:23;99842.59;;;13.76;100.00
21779;BME280;11050;52.222;20.916;2022-10-22T09:45:57;99848.03;;;13.91;100.00
21779;BME280;11050;52.222;20.916;2022-10-22T09:48:36;99852.91;;;14.04;100.00
21779;BME280;11050;52.222;20.916;2022-10-22T09:51:14;99848.94;;;14.15;100.00
21779;BME280;11050;52.222;20.916;2022-10-22T09:53:46;99845.63;;;14.13;100.00
21779;BME280;11050;52.222;20.916;2022-10-22T09:56:34;99845.41;;;14.10;100.00
21779;BME280;11050;52.222;20.916;2022-10-22T09:59:01;99850.69;;;14.06;100.00
21779;BME280;11050;52.222;20.916;2022-10-22T10:01:34;99843.81;;;13.99;100.00
21779;BME280;11050;52.222;20.916;2022-10-22T10:04:10;99856.75;;;14.03;100.00
21779;BME280;11050;52.222;20.916;2022-10-22T10:06:39;99859.22;;;14.05;100.00
21779;BME280;11050;52.222;20.916;2022-10-22T10:09:17;99870.28;;;14.05;100.00
21779;BME280;11050;52.222;20.916;2022-10-22T10:23:58;99859.75;;;14.07;100.00
21779;BME280;11050;52.222;20.916;2022-10-22T10:26:42;99867.75;;;14.13;100.00
21779;BME280;11050;52.222;20.916;2022-10-22T10:29:58;99883.84;;;14.06;100.00
21779;BME280;11050;52.222;20.916;2022-10-22T10:35:27;99871.41;;;14.04;100.00
21779;BME280;11050;52.222;20.916;2022-10-22T10:41:15;99881.69;;;13.93;100.00
21779;BME280;11050;52.222;20.916;2022-10-22T10:46:44;99883.88;;;13.96;100.00
21779;BME280;11050;52.222;20.916;2022-10-22T10:49:26;99877.03;;;13.89;100.00
21779;BME280;11050;52.222;20.916;2022-10-22T10:55:22;99891.38;;;13.91;100.00
21779;BME280;11050;52.222;20.916;2022-10-22T11:01:11;99881.72;;;13.88;100.00
21779;BME280;11050;52.222;20.916;2022-10-22T11:03:57;99887.25;;;13.88;100.00
21779;BME280;11050;52.222;20.916;2022-10-22T11:06:30;99878.41;;;13.86;100.00
21779;BME280;11050;52.222;20.916;2022-10-22T11:09:06;99873.72;;;13.87;100.00
21779;BME280;11050;52.222;20.916;2022-10-22T11:12:02;99862.13;;;13.85;100.00
21779;BME280;11050;52.222;20.916;2022-10-22T11:14:45;99854.09;;;13.88;100.00
21779;BME280;11050;52.222;20.916;2022-10-22T11:17:16;99846.34;;;13.90;100.00
21779;BME280;11050;52.222;20.916;2022-10-22T11:20:18;99847.44;;;13.94;100.00
21779;BME280;11050;52.222;20.916;2022-10-22T11:23:16;99851.00;;;14.00;100.00
21779;BME280;11050;52.222;20.916;2022-10-22T11:25:49;99846.53;;;14.04;100.00
21779;BME280;11050;52.222;20.916;2022-10-22T11:28:31;99847.91;;;14.06;100.00
21779;BME280;11050;52.222;20.916;2022-10-22T11:31:08;99851.72;;;14.10;100.00
21779;BME280;11050;52.222;20.916;2022-10-22T11:36:29;99849.19;;;14.19;100.00
21779;BME280;11050;52.222;20.916;2022-10-22T11:38:56;99841.75;;;14.14;100.00
21779;BME280;11050;52.222;20.916;2022-10-22T11:41:29;99838.19;;;14.14;100.00
21779;BME280;11050;52.222;20.916;2022-10-22T11:44:07;99846.97;;;14.21;100.00
21779;BME280;11050;52.222;20.916;2022-10-22T11:49:27;99837.25;;;14.29;100.00
21779;BME280;11050;52.222;20.916;2022-10-22T11:52:26;99836.09;;;14.35;100.00
21779;BME280;11050;52.222;20.916;2022-10-22T11:54:55;99836.91;;;14.35;100.00
21779;BME280;11050;52.222;20.916;2022-10-22T11:57:36;99834.66;;;14.42;100.00
21779;BME280;11050;52.222;20.916;2022-10-22T12:00:39;99828.78;;;14.49;100.00
21779;BME280;11050;52.222;20.916;2022-10-22T12:03:43;99820.16;;;14.55;100.00
21779;BME280;11050;52.222;20.916;2022-10-22T12:11:22;99823.81;;;14.74;100.00
21779;BME280;11050;52.222;20.916;2022-10-22T12:24:36;99806.94;;;14.76;100.00
21779;BME280;11050;52.222;20.916;2022-10-22T12:27:03;99816.28;;;14.80;100.00
21779;BME280;11050;52.222;20.916;2022-10-22T12:29:31;99806.88;;;14.81;100.00
21779;BME280;11050;52.222;20.916;2022-10-22T12:32:03;99803.88;;;14.77;100.00
21779;BME280;11050;52.222;20.916;2022-10-22T12:34:29;99812.63;;;14.84;100.00
21779;BME280;11050;52.222;20.916;2022-10-22T12:36:54;99813.47;;;14.85;100.00
21779;BME280;11050;52.222;20.916;2022-10-22T12:39:25;99805.75;;;14.82;100.00
21779;BME280;11050;52.222;20.916;2022-10-22T12:41:53;99796.84;;;14.85;100.00
21779;BME280;11050;52.222;20.916;2022-10-22T12:44:19;99807.81;;;14.95;100.00
21779;BME280;11050;52.222;20.916;2022-10-22T12:46:47;99810.22;;;15.01;100.00
21779;BME280;11050;52.222;20.916;2022-10-22T12:49:24;99805.75;;;15.05;100.00
21779;BME280;11050;52.222;20.916;2022-10-22T12:51:53;99807.09;;;15.08;100.00
21779;BME280;11050;52.222;20.916;2022-10-22T12:54:24;99802.38;;;15.08;100.00
21779;BME280;11050;52.222;20.916;2022-10-22T12:56:53;99807.03;;;15.13;100.00
21779;BME280;11050;52.222;20.916;2022-10-22T12:59:23;99796.28;;;15.11;100.00
21779;BME280;11050;52.222;20.916;2022-10-22T13:01:51;99810.09;;;15.11;100.00
21779;BME280;11050;52.222;20.916;2022-10-22T13:04:33;99819.06;;;15.03;100.00
21779;BME280;11050;52.222;20.916;2022-10-22T13:07:17;99819.13;;;14.98;100.00
21779;BME280;11050;52.222;20.916;2022-10-22T13:12:13;99832.53;;;14.86;100.00
21779;BME280;11050;52.222;20.916;2022-10-22T13:14:44;99832.91;;;14.80;100.00
21779;BME280;11050;52.222;20.916;2022-10-22T13:17:17;99836.69;;;14.84;100.00
21779;BME280;11050;52.222;20.916;2022-10-22T13:19:59;99835.91;;;14.83;100.00
21779;BME280;11050;52.222;20.916;2022-10-22T13:22:38;99835.34;;;14.81;100.00
21779;BME280;11050;52.222;20.916;2022-10-22T13:30:37;99826.81;;;14.78;100.00
21779;BME280;11050;52.222;20.916;2022-10-22T13:33:18;99831.22;;;14.79;100.00
21779;BME280;11050;52.222;20.916;2022-10-22T13:35:48;99830.69;;;14.77;100.00
21779;BME280;11050;52.222;20.916;2022-10-22T13:38:26;99823.81;;;14.74;100.00
21779;BME280;11050;52.222;20.916;2022-10-22T13:40:52;99828.00;;;14.72;100.00
21779;BME280;11050;52.222;20.916;2022-10-22T13:43:19;99822.25;;;14.63;100.00
21779;BME280;11050;52.222;20.916;2022-10-22T13:45:47;99835.28;;;14.63;100.00
21779;BME280;11050;52.222;20.916;2022-10-22T13:48:19;99832.28;;;14.59;100.00
21779;BME280;11050;52.222;20.916;2022-10-22T13:50:50;99818.19;;;14.56;100.00
21779;BME280;11050;52.222;20.916;2022-10-22T13:53:21;99807.78;;;14.48;100.00
21779;BME280;11050;52.222;20.916;2022-10-22T13:55:48;99808.34;;;14.45;100.00
21779;BME280;11050;52.222;20.916;2022-10-22T13:58:21;99819.41;;;14.45;100.00
21779;BME280;11050;52.222;20.916;2022-10-22T14:00:55;99817.78;;;14.44;100.00
21779;BME280;11050;52.222;20.916;2022-10-22T14:03:27;99817.47;;;14.45;100.00
21779;BME280;11050;52.222;20.916;2022-10-22T14:05:54;99810.88;;;14.41;100.00
21779;BME280;11050;52.222;20.916;2022-10-22T14:08:22;99805.88;;;14.43;100.00
21779;BME280;11050;52.222;20.916;2022-10-22T14:10:50;99805.28;;;14.46;100.00
21779;BME280;11050;52.222;20.916;2022-10-22T14:13:18;99803.72;;;14.40;100.00
21779;BME280;11050;52.222;20.916;2022-10-22T14:15:45;99810.56;;;14.43;100.00
21779;BME280;11050;52.222;20.916;2022-10-22T14:18:20;99814.16;;;14.43;100.00
21779;BME280;11050;52.222;20.916;2022-10-22T14:20:53;99803.72;;;14.40;100.00
21779;BME280;11050;52.222;20.916;2022-10-22T14:23:22;99800.94;;;14.40;100.00
21779;BME280;11050;52.222;20.916;2022-10-22T14:25:49;99803.97;;;14.39;100.00
21779;BME280;11050;52.222;20.916;2022-10-22T14:28:18;99803.41;;;14.42;100.00